createdAt,value
2015-09-04T17:52:30.584Z,100139
2015-09-04T17:52:40.631Z,100130
2015-09-04T17:56:48.530Z,100130
2015-09-04T17:57:04.186Z,100130
2015-09-04T17:57:42.891Z,100138
2015-09-04T17:58:39.596Z,100138
2015-09-04T17:59:26.114Z,100138
2015-09-04T18:01:29.555Z,100138
2015-09-04T18:01:38.508Z,100138
2015-09-04T18:02:45.182Z,100129
2015-09-04T18:03:28.934Z,100129
2015-09-04T18:05:48.954Z,100129
2015-09-04T18:07:47.442Z,100129
2015-09-04T18:12:49.765Z,100138
2015-09-04T18:17:53.227Z,100138
2015-09-04T18:18:01.461Z,100138
2015-09-04T18:22:56.205Z,100148
2015-09-04T18:27:57.823Z,100142
2015-09-04T18:28:33.575Z,100142
2015-09-04T18:30:16.424Z,100142
2015-09-04T18:32:36.272Z,100142
2015-09-04T18:33:01.522Z,100154
2015-09-04T18:33:15.850Z,100154
2015-09-04T18:33:39.680Z,100154
2015-09-04T18:34:58.588Z,100154
2015-09-04T18:36:03.308Z,100154
2015-09-04T18:36:21.152Z,100154
2015-09-04T18:38:03.344Z,100154
2015-09-04T18:38:23.953Z,100154
2015-09-04T18:38:45.392Z,100154
2015-09-04T18:39:23.564Z,100154
2015-09-04T18:39:52.645Z,100154
2015-09-04T18:43:05.697Z,100154
2015-09-04T18:46:37.453Z,100154
2015-09-04T18:46:41.828Z,100154
2015-09-04T18:48:08.410Z,100147
2015-09-04T18:53:11.748Z,100166
2015-09-04T18:54:55.469Z,100166
2015-09-04T18:58:13.352Z,100175
2015-09-04T19:03:16.159Z,100186
2015-09-04T19:08:17.823Z,100184
2015-09-04T19:13:19.738Z,100191
2015-09-04T19:18:22.045Z,100204
2015-09-04T19:23:24.322Z,100213
2015-09-04T19:28:26.596Z,100214
2015-09-04T19:33:28.872Z,100219
2015-09-04T19:38:31.163Z,100211
2015-09-04T19:43:33.423Z,100220
2015-09-04T19:48:36.166Z,100229
2015-09-04T19:53:39.472Z,100217
2015-09-04T19:58:40.311Z,100236
2015-09-04T20:03:42.539Z,100227
2015-09-04T20:08:44.815Z,100242
2015-09-04T20:13:47.090Z,100241
2015-09-04T20:18:49.428Z,100233
2015-09-04T20:23:52.625Z,100238
2015-09-04T20:28:53.448Z,100236
2015-09-04T20:33:56.503Z,100240
2015-09-04T20:38:59.372Z,100245
2015-09-04T20:44:00.741Z,100245
2015-09-04T20:49:03.000Z,100245
2015-09-04T20:54:06.261Z,100239
2015-09-04T20:59:08.645Z,100237
2015-09-04T21:04:10.828Z,100256
2015-09-04T21:09:12.650Z,100251
2015-09-04T21:14:16.019Z,100248
2015-09-04T21:19:19.294Z,100259
2015-09-04T21:24:20.756Z,100256
2015-09-04T21:29:23.016Z,100255
2015-09-04T21:34:25.385Z,100262
2015-09-04T21:39:27.614Z,100267
2015-09-04T21:44:30.029Z,100271
2015-09-04T21:49:31.931Z,100278
2015-09-04T21:54:36.018Z,100264
2015-09-04T21:59:37.169Z,100262
2015-09-04T22:04:39.474Z,100268
2015-09-04T22:09:41.812Z,100267
2015-09-04T22:14:44.009Z,100261
2015-09-04T22:19:46.316Z,100265
2015-09-04T22:24:48.607Z,100270
2015-09-04T22:29:51.101Z,100271
2015-09-04T22:34:52.815Z,100280
2015-09-04T22:39:56.012Z,100268
2015-09-04T22:44:57.897Z,100275
2015-09-04T22:50:00.092Z,100271
2015-09-04T22:55:02.430Z,100268
2015-09-04T23:00:07.143Z,100263
2015-09-04T23:05:07.965Z,100259
2015-09-04T23:10:10.225Z,100266
2015-09-04T23:15:12.032Z,100268
2015-09-04T23:20:16.152Z,100276
2015-09-04T23:25:17.193Z,100281
2015-09-04T23:30:19.435Z,100278
2015-09-04T23:35:21.757Z,100266
2015-09-04T23:40:23.970Z,100278
2015-09-04T23:45:26.325Z,100273
2015-09-04T23:50:28.599Z,100281
2015-09-04T23:55:30.859Z,100275
